»·PEaware :: N196EC KSNA-L45

N196EC :: KSNA-L45

FLIGHT INFORMATION

Flight Status: Arrived
Operator: Privately registered:
United States
More flights under this callsign
Pilot: Adrián R. (20842)
Aircraft: BEECH AIRCRAFT DEBONAIR BONANZA
(BE33)
More flights by this aircraft type
Origin: KSNA John Wayne-Orange Co
United States
Destination: L45 Bakersfield Mun
United States
More flights between these airports :: More routes between these airports
Route: ANAHM1 LHS V165 LOPES
File this flight plan on PilotEdge
Remarks:
Altitude:
(Current/Filed)
10,000ft
Speed:
(Current/Filed)
160kts
Departed: 06-Nov-18 11:00 AM
Arrived: 06-Nov-18 12:03 PM
Distance/Time
Traveled:
114nm/1:03
Distance/Time
To Go:
Arrived

Flight Plot

Page will automatically refresh every two minutes.

Flight plan parsing failed; only flown route is shown


Map Options




Map Legend


Flown Route
Filed Route
Departure Airport
Arrival Airport
Navaid (VOR, NDB)
Fix

Horizontal Profiles

Position Reports

Time Latitude Longitude Heading Altitude Ground
Speed
06-Nov-18 10:22 33.676354 -117.871760 211 60ft 0kts
06-Nov-18 10:23 33.676354 -117.871760 211 60ft 0kts
06-Nov-18 10:24 33.676354 -117.871760 211 60ft 0kts
06-Nov-18 10:25 33.676354 -117.871760 211 60ft 0kts
06-Nov-18 10:26 33.676354 -117.871760 211 60ft 0kts
06-Nov-18 10:27 33.676354 -117.871760 210 60ft 0kts
06-Nov-18 10:28 33.676354 -117.871760 210 60ft 0kts
06-Nov-18 10:29 33.676354 -117.871760 210 60ft 0kts
06-Nov-18 10:30 33.676354 -117.871760 210 60ft 0kts
06-Nov-18 10:31 33.676354 -117.871760 210 60ft 0kts
06-Nov-18 10:32 33.676354 -117.871760 210 60ft 0kts
06-Nov-18 10:33 33.676354 -117.871760 210 60ft 0kts
06-Nov-18 10:34 33.676354 -117.871760 210 60ft 0kts
06-Nov-18 10:35 33.676354 -117.871760 210 60ft 0kts
06-Nov-18 10:36 33.676354 -117.871760 210 60ft 0kts
06-Nov-18 10:37 33.676354 -117.871760 210 60ft 0kts
06-Nov-18 10:38 33.676354 -117.871760 210 60ft 0kts
06-Nov-18 10:39 33.676354 -117.871760 210 60ft 0kts
06-Nov-18 10:40 33.676354 -117.871760 210 60ft 0kts
06-Nov-18 10:41 33.676354 -117.871760 210 60ft 0kts
06-Nov-18 10:42 33.676354 -117.871760 210 60ft 0kts
06-Nov-18 10:43 33.676354 -117.871760 210 60ft 0kts
06-Nov-18 10:44 33.676354 -117.871760 210 60ft 0kts
06-Nov-18 10:45 33.676354 -117.871760 210 60ft 0kts
06-Nov-18 10:46 33.676354 -117.871760 210 60ft 0kts
06-Nov-18 10:47 33.676354 -117.871760 210 60ft 0kts
06-Nov-18 10:48 33.676293 -117.871770 173 60ft 3kts
06-Nov-18 10:49 33.675954 -117.870902 126 59ft 0kts
06-Nov-18 10:50 33.675954 -117.870902 126 59ft 0kts
06-Nov-18 10:51 33.675954 -117.870902 126 59ft 0kts
06-Nov-18 10:52 33.675954 -117.870902 126 59ft 0kts
06-Nov-18 10:53 33.675954 -117.870902 126 59ft 0kts
06-Nov-18 10:54 33.677670 -117.868956 62 60ft 14kts
06-Nov-18 10:55 33.677633 -117.868631 201 59ft 0kts
06-Nov-18 10:56 33.677633 -117.868631 201 59ft 0kts
06-Nov-18 10:57 33.677633 -117.868631 201 59ft 0kts
06-Nov-18 10:58 33.677633 -117.868631 201 59ft 0kts
06-Nov-18 10:59 33.678556 -117.868504 25 59ft 15kts
06-Nov-18 11:00 33.681364 -117.866495 84 59ft 0kts
06-Nov-18 11:01 33.681364 -117.866495 84 59ft 0kts
06-Nov-18 11:02 33.680888 -117.865662 171 59ft 10kts
06-Nov-18 11:03 33.674084 -117.869861 205 91ft 96kts
06-Nov-18 11:04 33.651427 -117.891512 231 1002ft 115kts
06-Nov-18 11:05 33.633149 -117.921497 233 1993ft 120kts
06-Nov-18 11:06 33.621587 -117.962060 302 2384ft 133kts
06-Nov-18 11:07 33.651799 -117.968307 7 3328ft 108kts
06-Nov-18 11:08 33.678538 -117.963667 7 4280ft 86kts
06-Nov-18 11:09 33.701227 -117.959764 8 4926ft 89kts
06-Nov-18 11:10 33.728152 -117.954287 8 5467ft 105kts
06-Nov-18 11:11 33.757170 -117.948084 9 6056ft 112kts
06-Nov-18 11:12 33.793379 -117.940329 9 6010ft 145kts
06-Nov-18 11:13 33.833805 -117.928839 36 5907ft 155kts
06-Nov-18 11:14 33.848129 -117.880640 72 5804ft 161kts
06-Nov-18 11:15 33.861460 -117.830412 68 5703ft 161kts
06-Nov-18 11:16 33.879241 -117.782961 37 5597ft 159kts
06-Nov-18 11:17 33.921466 -117.782797 355 5503ft 162kts
06-Nov-18 11:18 33.963739 -117.784680 358 5924ft 136kts
06-Nov-18 11:19 34.002631 -117.789565 323 5981ft 151kts
06-Nov-18 11:20 34.021929 -117.833483 292 6400ft 135kts
06-Nov-18 11:21 34.034836 -117.870153 312 7333ft 104kts
06-Nov-18 11:22 34.054235 -117.895914 312 7933ft 109kts
06-Nov-18 11:23 34.075674 -117.923641 313 8439ft 116kts
06-Nov-18 11:24 34.096596 -117.950787 312 9110ft 105kts
06-Nov-18 11:25 34.114633 -117.974137 312 9664ft 103kts
06-Nov-18 11:26 34.135244 -118.000678 312 9992ft 121kts
06-Nov-18 11:27 34.160645 -118.033159 313 9978ft 142kts
06-Nov-18 11:28 34.187828 -118.068000 312 9969ft 144kts
06-Nov-18 11:29 34.215262 -118.103319 313 9966ft 147kts
06-Nov-18 11:30 34.243341 -118.139535 313 9972ft 148kts
06-Nov-18 11:31 34.271557 -118.175943 313 9989ft 148kts
06-Nov-18 11:32 34.298273 -118.210461 313 10003ft 148kts
06-Nov-18 11:33 34.326459 -118.246919 313 10016ft 148kts
06-Nov-18 11:34 34.354424 -118.283127 313 10025ft 148kts
06-Nov-18 11:35 34.382600 -118.319672 313 10031ft 148kts
06-Nov-18 11:36 34.375784 -118.362215 207 10034ft 164kts
06-Nov-18 11:37 34.342335 -118.390401 269 10019ft 152kts
06-Nov-18 11:38 34.370548 -118.416447 1 10028ft 151kts
06-Nov-18 11:39 34.411433 -118.424318 339 10036ft 149kts
06-Nov-18 11:40 34.450090 -118.442677 334 10038ft 149kts
06-Nov-18 11:41 34.487986 -118.463183 333 10039ft 149kts
06-Nov-18 11:42 34.525507 -118.484774 332 10040ft 149kts
06-Nov-18 11:43 34.563095 -118.506741 332 10039ft 150kts
06-Nov-18 11:44 34.600603 -118.528713 332 10041ft 149kts
06-Nov-18 11:45 34.638435 -118.550893 332 9997ft 151kts
06-Nov-18 11:46 34.676137 -118.573020 332 10001ft 150kts
06-Nov-18 11:47 34.714400 -118.588118 341 10005ft 150kts
06-Nov-18 11:48 34.754549 -118.602469 341 10007ft 150kts
06-Nov-18 11:49 34.794664 -118.616763 341 10007ft 151kts
06-Nov-18 11:50 34.827985 -118.628641 341 10007ft 151kts
06-Nov-18 11:51 34.874851 -118.645362 341 10006ft 150kts
06-Nov-18 11:52 34.910046 -118.657962 341 10007ft 149kts
06-Nov-18 11:53 34.949810 -118.672133 342 9954ft 153kts
06-Nov-18 11:54 34.993413 -118.687579 340 9271ft 170kts
06-Nov-18 11:55 35.031598 -118.701757 331 8693ft 173kts
06-Nov-18 11:56 35.068646 -118.738228 318 7998ft 168kts
06-Nov-18 11:57 35.109509 -118.779266 318 6727ft 162kts
06-Nov-18 11:58 35.137914 -118.807783 319 5823ft 160kts
06-Nov-18 11:59 35.172086 -118.842090 319 4725ft 159kts
06-Nov-18 12:00 35.205953 -118.876341 317 3629ft 158kts
06-Nov-18 12:01 35.232309 -118.918188 297 2532ft 157kts
06-Nov-18 12:02 35.251420 -118.966001 295 1463ft 154kts
06-Nov-18 12:03 35.281800 -118.989394 338 1077ft 104kts
06-Nov-18 12:04 35.305102 -118.993736 348 595ft 74kts
06-Nov-18 12:05 35.324340 -118.996040 356 381ft 55kts
06-Nov-18 12:06 35.327517 -118.997147 263 381ft 0kts
06-Nov-18 12:07 35.326446 -118.997309 177 380ft 9kts
06-Nov-18 12:08 35.325553 -118.997431 1 380ft 0kts
06-Nov-18 12:09 35.325553 -118.997431 1 381ft 0kts
06-Nov-18 12:10 35.325553 -118.997431 1 381ft 0kts

Navigation Log

Ident Type
Flight plan parsing failed, navigation log unavailable